NCAR-RAP Real-Time Weather Data

Output produced by METARs form (20 February 2019  18:41 UTC)
found at http://weather.rap.ucar.edu/surface/
 
RJOI 201755Z 31005KT 9999 FEW030 FEW045 BKN140 05/00 A3022 RMK SLP234 T00500000 10083 20050 58007
RJOI 201655Z 31006KT 9999 FEW040 FEW080 SCT140 06/00 A3023 RMK SLP236 T00560000
RJOI 201555Z 30006KT 9999 FEW035 FEW090 SCT160 06/00 A3022 RMK SLP233 T00560000
RJOI 201455Z 31004KT 9999 FEW030 BKN050 07/M01 A3024 RMK SLP240 T00671006 401390067 53014
RJOI 201355Z 31005KT 9999 FEW030 BKN050 07/M01 A3022 RMK SLP232 T00671006
RJOI 201255Z 33005KT 9999 BKN050 08/M01 A3021 RMK SLP229 T00781011
RJOI 201155Z 31006KT 9999 FEW040 08/M01 A3020 RMK SLP228 T00781006 10128 20078 53017
RJOI 201055Z 30007KT 9999 FEW025 SCT035 08/01 A3019 RMK SLP222 T00830006
RJOI 200955Z 28006KT 9999 SCT025 09/01 A3018 RMK SLP220 T00890011
RJOI 200855Z 31009KT 9999 SCT025 10/01 A3015 RMK SLP210 T01000011 51017
RJOI 200755Z 31010G17KT 9999 BKN025 BKN040 11/01 A3014 RMK SLP205 MDT CU OHD T01060011
RJOI 200655Z 31012G18KT 9999 SCT025 12/02 A3012 RMK SLP200 T01220017
RJOI 200555Z 31013G18KT 9999 BKN025 BKN040 13/03 A3011 RMK SLP195 T01280028 10139 20122 55000
RJOI 200455Z 27014G21KT 9999 BKN025 BKN040 14/03 A3009 RMK SLP188 T01390028
RJOI 200355Z 26007KT 9999 BKN025 BKN040 13/04 A3011 RMK SLP195 MDT CU OHD T01330039
RJOI 200255Z 33008KT 9999 FEW015 BKN025 BKN040 13/04 A3011 RMK SLP196 MDT CU OHD T01280039 55000
RJOI 200155Z 00000KT 9999 FEW015 BKN025 BKN040 13/06 A3011 RMK SLP195 MDT CU ALQDS T01280061
RJOI 200055Z 35004KT 9999 FEW015 BKN025 BKN040 13/06 A3009 RMK SLP189 T01280061
RJOI 192355Z 00000KT 9999 FEW015 BKN025 BKN040 12/07 A3011 RMK SLP194 T01220067 10133 20106 53024
RJOI 192255Z 26004KT 9999 FEW015 BKN025 BKN040 12/07 A3008 RMK SLP186 T01170067
RJOI 192219Z 23007KT 9999 FEW015 BKN025 BKN040 12/07 A3007 RMK SLP183
RJOI 192155Z 25007KT 9999 FEW020 BKN040 BKN050 12/06 A3006 RMK SLP178 T01170061
RJOI 192055Z 00000KT 9999 FEW020 SCT040 BKN050 12/07 A3004 RMK SLP172 T01220067 53007
RJOI 191955Z VRB03KT 9999 FEW020 BKN040 OVC050 13/07 A3003 RMK SLP167 T01280072
RJOI 191855Z 27003KT 9999 FEW020 SCT040 OVC050 13/08 A3002 RMK SLP164 T01280083
RJOI 191755Z 27007KT 9999 FEW020 SCT040 OVC050 13/09 A3002 RMK SLP164 T01330089 10133 20094 58007
RJOI 191655Z 24006KT 9999 FEW020 SCT035 OVC045 13/09 A3003 RMK SLP169 T01330094
RJOI 191555Z 23009KT 9999 FEW020 BKN035 BKN045 13/10 A3004 RMK SLP173 T01330100
RJOI 191455Z 00000KT 9000 BR FEW030 BKN035 OVC045 11/09 A3003 RMK SLP169 T01060089 401060061 51017
RJOI 191355Z 00000KT 9999 FEW020 SCT035 BKN045 11/09 A3002 RMK SLP166 T01060089
RJOI 191255Z 36004KT 9999 FEW020 SCT030 BKN040 10/08 A3002 RMK SLP165 T01000083
RJOI 191155Z 01007KT 9999 FEW020 SCT030 BKN040 09/08 A2998 RMK SLP151 60000 70157 T00940078 10106 20089 53017
RJOI 191055Z 24004KT 9999 FEW020 FEW035 SCT045 09/08 A2995 RMK SLP143 T00940078
RJOI 190955Z 00000KT 9999 FEW005 SCT012 BKN025 09/08 A2995 RMK SLP141 T00940083
RJOI 190855Z 01005KT 9999 FEW005 SCT012 BKN025 09/08 A2993 RMK SHRAE42 SLP135 P0000 60000 T00940078 53010
RJOI 190755Z 00000KT 9999 -SHRA FEW005 BKN015 OVC025 09/08 A2992 RMK SHRAB50 SLP131 P0000 T00940078
RJOI 190655Z 00000KT 6000 BR FEW005 BKN015 OVC025 09/07 A2991 RMK SFC VIS 9999 SLP126 T00890072
RJOI 190555Z 36005KT 9000 BR FEW005 BKN015 OVC025 09/07 A2990 RMK SHRAE33B49E52 SLP126 VIS LWR SW P0002 60094 T00890072 10089 20067 58024
RJOI 190538Z COR 02005KT 6000 BR SCT005 BKN008 OVC015 09/07 A2991 RMK SLP128
RJOI 190455Z COR 31007KT 3200 SHRA BR SCT005 BKN008 OVC015 08/07 A2994 RMK SFC VIS 4800 SLP136 P0013 T00830067
RJOI 190355Z COR 00000KT 3200 -SHRA BR SCT005 BKN008 OVC015 08/07 A2995 RMK TWR VIS 4800 PRESFR SLP140 P0010 T00780067
RJOI 190322Z VRB04KT 4800 -SHRA BR SCT005 BKN008 OVC020 08/07 A2999 RMK SLP154
RJOI 190255Z COR 190255Z 06008KT 1600 SHRA BR SCT005 BKN008 OVC020 08/06 A2998 RMK PRESFR SLP150 P0027 60069 T00780061 58044
RJOI 190155Z 01006KT 2400 SHRA BR SCT005 BKN008 OVC015 07/06 A3003 RMK SLP168 P0022 T00720061
RJOI 190055Z 36005KT 2400 SHRA BR SCT005 BKN008 OVC015 07/06 A3007 RMK SLP182 P0020 T00720056
RJOI 182355Z COR 01009KT 2400 SHRA BR SCT005 BKN008 OVC015 07/06 A3011 RMK SLP196 P0012 60060 T00670056 10072 20061 58020
RJOI 182255Z 02008KT 3200 RA BR FEW005 BKN008 OVC015 07/05 A3014 RMK SLP206 P0012 T00670050
RJOI 182217Z 01007KT 4000 -RA BR FEW005 BKN010 OVC022 07/05 A3014 RMK SLP207
RJOI 182155Z 03010KT 4000 RA BR SCT010 BKN022 OVC030 07/04 A3014 RMK SLP207 P0016 T00670044
RJOI 182055Z 03007KT 6000 RA BR FEW011 BKN023 OVC030 07/04 A3017 RMK SLP215 P0011 60020 T00670039 56017
RJOI 181955Z 31005KT 8000 -RA BR FEW015 BKN022 OVC030 06/04 A3018 RMK SLP220 P0005 T00610044
RJOI 181855Z 31004KT 9999 -RA SCT025 BKN030 OVC040 06/04 A3019 RMK SLP223 P0004 T00610039
RJOI 181755Z 31006KT 8000 -RA BR FEW020 BKN030 OVC040 07/03 A3022 RMK SLP231 P0003 60003 T00670033 10094 20067 58010
RJOI 181655Z 31005KT 9999 -RA FEW025 BKN035 OVC055 08/02 A3023 RMK SLP237 P0000 T00780017
RJOI 181555Z 29003KT 9999 -RA FEW025 BKN035 OVC065 09/01 A3025 RMK SLP241 P0000 T00890006
RJOI 181455Z 31004KT 9999 -SHRA FEW025 BKN035 BKN065 08/M01 A3024 RMK SHRAB07 SLP241 P0000 60000 T00831006 401000006 58014
RJOI 181355Z 30004KT 9999 FEW030 BKN040 OVC080 09/M01 A3027 RMK SLP249 T00891006
RJOI 181255Z 30004KT 9999 FEW030 BKN040 OVC080 09/00 A3028 RMK SLP253 T00890000
RJOI 181155Z 00000KT 9999 FEW030 BKN040 BKN085 09/00 A3029 RMK RAB00E41 SLP256 P0000 60000 T00940000 10100 20089 51007
RJOI 181055Z 00000KT 9999 FEW030 BKN095 OVC120 09/M01 A3029 RMK SLP257 T00941006
RJOI 180955Z 19003KT 9999 FEW030 BKN100 BKN120 09/M01 A3029 RMK SLP256 T00941011
RJOI 180855Z 18004KT 9999 FEW030 BKN100 BKN120 09/00 A3026 RMK SLP247 T00940000 53003
RJOI 180755Z 00000KT 9999 FEW030 BKN100 BKN120 09/M02 A3025 RMK SLP241 T00941022
RJOI 180655Z 21003KT 9999 BKN120 BKN220 09/M01 A3024 RMK SLP241 T00941006